Time;durP1;ratioP1;P1;durP2;ratioP2;P2;SDS_P1;SDS_P2;PMS_P1;PMS_P2;Temp;Humidity;BMP_temperature;BMP_pressure;BME280_temperature;BME280_humidity;BME280_pressure;Samples;Min_cycle;Max_cycle;Signal;HPM_P1;HPM_P2
2023/07/29 00:00:15;;;;;;;27.33;10.93;;;;;;;;;;8399465;28;20045;-92
2023/07/29 00:04:38;;;;;;;23.30;9.23;;;;;;;;;;8401670;28;20055;-92
2023/07/29 00:08:41;;;;;;;22.10;9.23;;;;;;;;;;8421893;28;20048;-93
2023/07/29 00:12:44;;;;;;;26.58;10.45;;;;;;;;;;8410376;28;20120;-92
2023/07/29 00:16:49;;;;;;;26.00;11.50;;;;;;;;;;8386713;28;20139;-93
2023/07/29 00:20:52;;;;;;;22.75;9.98;;;;;;;;;;8389857;28;20094;-91
2023/07/29 00:24:57;;;;;;;22.00;9.80;;;;;;;;;;8416551;28;20245;-93
2023/07/29 00:29:00;;;;;;;23.85;9.75;;;;;;;;;;8400166;28;20115;-92
2023/07/29 00:33:04;;;;;;;19.55;8.55;;;;;;;;;;8395726;28;20047;-88
2023/07/29 00:37:07;;;;;;;22.20;8.70;;;;;;;;;;8398184;28;20097;-93
2023/07/29 00:41:13;;;;;;;22.20;9.27;;;;;;;;;;8369480;28;20047;-87
2023/07/29 00:45:16;;;;;;;20.33;10.25;;;;;;;;;;8428180;28;20048;-89
2023/07/29 00:49:21;;;;;;;17.67;7.88;;;;;;;;;;8402011;28;20134;-93
2023/07/29 00:53:24;;;;;;;16.67;7.60;;;;;;;;;;8392303;28;20544;-89
2023/07/29 00:57:28;;;;;;;19.30;8.52;;;;;;;;;;8394200;28;20105;-93
2023/07/29 01:01:31;;;;;;;25.77;8.73;;;;;;;;;;8370169;28;20135;-93
2023/07/29 01:05:41;;;;;;;20.67;8.23;;;;;;;;;;8409139;28;20180;-93
2023/07/29 01:09:57;;;;;;;19.40;9.30;;;;;;;;;;8410778;28;20486;-91
2023/07/29 01:14:09;;;;;;;24.15;9.15;;;;;;;;;;8398168;28;20049;-91
2023/07/29 01:18:19;;;;;;;20.85;9.05;;;;;;;;;;8364222;28;20076;-91
2023/07/29 01:22:25;;;;;;;16.40;7.60;;;;;;;;;;8407351;28;20112;-92
2023/07/29 01:26:29;;;;;;;19.77;8.55;;;;;;;;;;8407272;28;20050;-93
2023/07/29 01:30:37;;;;;;;20.77;8.63;;;;;;;;;;8409303;28;20090;-92
2023/07/29 01:34:46;;;;;;;22.13;10.13;;;;;;;;;;8380510;28;20189;-93
2023/07/29 01:38:50;;;;;;;23.55;10.52;;;;;;;;;;8413485;28;20047;-88
2023/07/29 01:42:55;;;;;;;25.08;10.38;;;;;;;;;;8391651;28;20051;-93
2023/07/29 01:46:58;;;;;;;22.73;9.35;;;;;;;;;;8396922;28;20045;-92
2023/07/29 01:51:01;;;;;;;21.33;9.63;;;;;;;;;;8406628;28;20044;-91
2023/07/29 01:55:04;;;;;;;20.63;9.32;;;;;;;;;;8417848;28;20445;-89
2023/07/29 01:59:08;;;;;;;25.40;9.43;;;;;;;;;;8406609;28;20507;-91
2023/07/29 02:03:11;;;;;;;22.40;9.77;;;;;;;;;;8371377;28;20136;-91
2023/07/29 02:07:14;;;;;;;23.45;9.52;;;;;;;;;;8383345;28;20552;-91
2023/07/29 02:11:17;;;;;;;21.05;9.43;;;;;;;;;;8407201;28;20476;-92
2023/07/29 02:15:21;;;;;;;22.88;10.18;;;;;;;;;;8402660;28;20435;-92
2023/07/29 02:19:24;;;;;;;24.35;9.68;;;;;;;;;;8402698;28;20396;-91
2023/07/29 02:23:27;;;;;;;21.13;9.43;;;;;;;;;;8394957;28;20145;-89
2023/07/29 02:27:30;;;;;;;19.25;9.57;;;;;;;;;;8397509;28;20618;-89
2023/07/29 02:31:36;;;;;;;19.17;9.10;;;;;;;;;;8390750;28;20131;-91
2023/07/29 02:35:39;;;;;;;18.75;9.95;;;;;;;;;;8390741;28;20123;-90
2023/07/29 02:39:42;;;;;;;21.10;9.40;;;;;;;;;;8407721;28;20071;-90
2023/07/29 02:43:49;;;;;;;22.92;10.73;;;;;;;;;;8401311;28;20086;-92
2023/07/29 02:47:53;;;;;;;23.95;10.88;;;;;;;;;;8401614;28;20147;-93
2023/07/29 02:51:56;;;;;;;21.65;9.75;;;;;;;;;;8399192;28;20048;-92
2023/07/29 02:55:59;;;;;;;19.88;9.38;;;;;;;;;;8394763;28;20047;-93
2023/07/29 03:00:02;;;;;;;26.08;10.70;;;;;;;;;;8398247;28;20072;-91
2023/07/29 03:04:07;;;;;;;29.75;11.70;;;;;;;;;;8400880;28;20063;-93
2023/07/29 03:08:10;;;;;;;21.13;10.63;;;;;;;;;;8407001;28;20043;-90
2023/07/29 03:12:13;;;;;;;25.20;11.57;;;;;;;;;;8395577;28;20053;-89
2023/07/29 03:16:17;;;;;;;24.15;9.73;;;;;;;;;;8387692;28;20052;-92
2023/07/29 03:20:22;;;;;;;29.15;12.85;;;;;;;;;;8401073;28;20049;-88
2023/07/29 03:24:25;;;;;;;26.23;12.13;;;;;;;;;;8405331;28;20052;-92
2023/07/29 03:28:30;;;;;;;25.67;11.95;;;;;;;;;;8390289;28;20078;-93
2023/07/29 03:32:33;;;;;;;21.80;10.50;;;;;;;;;;8383324;28;20144;-93
2023/07/29 03:36:37;;;;;;;31.58;13.18;;;;;;;;;;8405843;28;20404;-86
2023/07/29 03:40:40;;;;;;;33.33;12.25;;;;;;;;;;8372983;28;20044;-90
2023/07/29 03:44:43;;;;;;;21.58;9.80;;;;;;;;;;8396198;28;20051;-91
2023/07/29 03:48:47;;;;;;;21.73;10.43;;;;;;;;;;8390748;28;20049;-92
2023/07/29 03:52:58;;;;;;;23.58;11.32;;;;;;;;;;8389384;28;20051;-92
2023/07/29 03:57:08;;;;;;;22.80;10.80;;;;;;;;;;8393907;28;20049;-84
2023/07/29 04:01:12;;;;;;;21.88;8.88;;;;;;;;;;8407640;28;20051;-91
2023/07/29 04:05:18;;;;;;;20.38;10.50;;;;;;;;;;8389383;28;20044;-93
2023/07/29 04:09:24;;;;;;;14.70;7.97;;;;;;;;;;8390855;28;20058;-93
2023/07/29 04:13:27;;;;;;;13.90;8.10;;;;;;;;;;8378074;28;20044;-91
2023/07/29 04:17:36;;;;;;;15.07;6.75;;;;;;;;;;8396137;28;20044;-84
2023/07/29 04:21:42;;;;;;;12.00;7.70;;;;;;;;;;8400519;28;20045;-87
2023/07/29 04:25:49;;;;;;;11.82;7.97;;;;;;;;;;8393849;28;20052;-92
2023/07/29 04:29:54;;;;;;;13.18;8.40;;;;;;;;;;8380492;28;20072;-84
2023/07/29 04:33:58;;;;;;;11.95;6.88;;;;;;;;;;8387037;28;20118;-92
2023/07/29 04:38:01;;;;;;;9.63;5.93;;;;;;;;;;8398362;28;20048;-87
2023/07/29 04:42:06;;;;;;;11.50;6.90;;;;;;;;;;8391456;28;20113;-91
2023/07/29 04:46:09;;;;;;;10.93;7.00;;;;;;;;;;8403554;28;20476;-92
2023/07/29 04:50:12;;;;;;;7.50;6.05;;;;;;;;;;8385805;28;20638;-89
2023/07/29 04:54:16;;;;;;;9.10;5.50;;;;;;;;;;8382950;28;20075;-83
2023/07/29 04:58:21;;;;;;;8.50;6.00;;;;;;;;;;8414684;28;20044;-90
2023/07/29 05:02:27;;;;;;;7.63;5.38;;;;;;;;;;8381342;28;20072;-92
2023/07/29 05:06:30;;;;;;;8.00;5.95;;;;;;;;;;8380293;28;20522;-84
2023/07/29 05:10:33;;;;;;;8.93;5.68;;;;;;;;;;8403422;28;20544;-87
2023/07/29 05:14:38;;;;;;;7.13;5.50;;;;;;;;;;8377154;28;20131;-86
2023/07/29 05:18:40;;;;;;;7.47;5.78;;;;;;;;;;8375359;28;20056;-90
2023/07/29 05:22:43;;;;;;;9.15;6.63;;;;;;;;;;8377909;28;20487;-85
2023/07/29 05:26:47;;;;;;;10.70;7.32;;;;;;;;;;8381410;28;20381;-91
2023/07/29 05:30:51;;;;;;;8.82;7.07;;;;;;;;;;8370307;28;20037;-94
2023/07/29 05:34:54;;;;;;;13.40;10.40;;;;;;;;;;8384266;28;20048;-96
2023/07/29 05:38:57;;;;;;;9.27;8.30;;;;;;;;;;8378244;28;20041;-95
2023/07/29 05:43:00;;;;;;;19.33;13.10;;;;;;;;;;8391677;28;20057;-95
2023/07/29 05:47:05;;;;;;;15.70;10.93;;;;;;;;;;8394017;28;20072;-94
2023/07/29 05:51:11;;;;;;;15.90;10.40;;;;;;;;;;8404623;28;20071;-91
2023/07/29 05:55:14;;;;;;;14.48;9.32;;;;;;;;;;8386571;28;20064;-85
2023/07/29 05:59:17;;;;;;;15.27;9.45;;;;;;;;;;8406587;28;20048;-85
2023/07/29 06:03:21;;;;;;;17.65;9.68;;;;;;;;;;8406954;28;20061;-86
2023/07/29 06:07:27;;;;;;;13.43;8.25;;;;;;;;;;8376701;28;20072;-91
2023/07/29 06:11:30;;;;;;;18.95;8.57;;;;;;;;;;8374057;28;20403;-88
2023/07/29 06:15:33;;;;;;;12.40;8.30;;;;;;;;;;8396904;28;20045;-95
2023/07/29 06:19:38;;;;;;;12.35;6.90;;;;;;;;;;8401083;28;20072;-96
2023/07/29 06:23:40;;;;;;;9.82;6.75;;;;;;;;;;8384379;28;20132;-91
2023/07/29 06:27:43;;;;;;;12.35;6.18;;;;;;;;;;8421994;28;20072;-89
2023/07/29 06:31:46;;;;;;;11.77;6.95;;;;;;;;;;8413312;28;20071;-87
2023/07/29 06:35:51;;;;;;;13.07;5.03;;;;;;;;;;8395305;28;20052;-88
2023/07/29 06:39:54;;;;;;;13.23;5.00;;;;;;;;;;8403291;28;20060;-87
2023/07/29 06:43:57;;;;;;;13.95;4.68;;;;;;;;;;8410570;28;20141;-86
2023/07/29 06:48:00;;;;;;;9.73;4.80;;;;;;;;;;8431483;28;20044;-87
2023/07/29 06:52:07;;;;;;;13.82;5.10;;;;;;;;;;8430551;28;20480;-91
2023/07/29 06:56:10;;;;;;;9.52;4.30;;;;;;;;;;8404453;28;20413;-90
2023/07/29 07:00:20;;;;;;;10.60;4.50;;;;;;;;;;8402420;28;20052;-86
2023/07/29 07:04:23;;;;;;;12.27;4.50;;;;;;;;;;8411946;28;20087;-83
2023/07/29 07:08:38;;;;;;;8.00;3.65;;;;;;;;;;8423746;28;20074;-92
2023/07/29 07:12:53;;;;;;;8.10;3.92;;;;;;;;;;8448389;28;20056;-84
2023/07/29 07:17:05;;;;;;;5.07;3.50;;;;;;;;;;8434622;28;20052;-84
2023/07/29 07:21:25;;;;;;;4.80;2.55;;;;;;;;;;8366999;28;20077;-84
2023/07/29 07:25:43;;;;;;;3.13;2.50;;;;;;;;;;8332139;28;20061;-86
2023/07/29 07:29:46;;;;;;;2.72;2.33;;;;;;;;;;8330441;28;20117;-94
2023/07/29 07:33:49;;;;;;;2.80;2.20;;;;;;;;;;8330856;28;20091;-82
2023/07/29 07:37:55;;;;;;;5.38;2.50;;;;;;;;;;8296227;28;20085;-92
2023/07/29 07:42:00;;;;;;;3.60;2.55;;;;;;;;;;8332800;28;20046;-84
2023/07/29 07:46:06;;;;;;;5.70;2.95;;;;;;;;;;8339858;28;20085;-85
2023/07/29 07:50:09;;;;;;;2.40;2.20;;;;;;;;;;8365700;28;20076;-83
2023/07/29 07:54:13;;;;;;;3.72;2.28;;;;;;;;;;8400337;28;20044;-83
2023/07/29 07:58:17;;;;;;;5.70;2.80;;;;;;;;;;8399281;28;20051;-84
2023/07/29 08:02:23;;;;;;;4.50;2.72;;;;;;;;;;8418571;28;20062;-85
2023/07/29 08:06:32;;;;;;;3.45;2.53;;;;;;;;;;8390570;28;20055;-83
2023/07/29 08:10:36;;;;;;;2.80;2.50;;;;;;;;;;8394041;28;20411;-83
2023/07/29 08:14:42;;;;;;;3.15;2.75;;;;;;;;;;8395786;28;20048;-85
2023/07/29 08:18:47;;;;;;;3.38;2.85;;;;;;;;;;8406021;28;20122;-83
2023/07/29 08:22:50;;;;;;;5.28;3.20;;;;;;;;;;8400009;28;20404;-83
2023/07/29 08:26:53;;;;;;;3.15;2.70;;;;;;;;;;8411851;28;20076;-90
2023/07/29 08:30:58;;;;;;;3.10;2.67;;;;;;;;;;8388639;28;20056;-84
2023/07/29 08:35:01;;;;;;;4.22;2.80;;;;;;;;;;8395941;28;20090;-83
2023/07/29 08:39:04;;;;;;;4.82;3.05;;;;;;;;;;8396373;28;20150;-83
2023/07/29 08:43:07;;;;;;;5.50;3.10;;;;;;;;;;8391922;28;20056;-87
2023/07/29 08:47:13;;;;;;;5.07;3.28;;;;;;;;;;8382187;28;20071;-83
2023/07/29 08:51:18;;;;;;;4.13;3.58;;;;;;;;;;8389936;28;20140;-85
2023/07/29 08:55:22;;;;;;;82.45;16.50;;;;;;;;;;8410785;28;20415;-92
2023/07/29 08:59:26;;;;;;;4.30;3.47;;;;;;;;;;8405917;28;20055;-81
2023/07/29 09:03:31;;;;;;;5.80;3.58;;;;;;;;;;8417267;28;20056;-83
2023/07/29 09:07:35;;;;;;;6.13;3.60;;;;;;;;;;8404463;28;20040;-82
2023/07/29 09:11:38;;;;;;;5.20;4.07;;;;;;;;;;8400368;28;20076;-82
2023/07/29 09:15:42;;;;;;;5.20;3.58;;;;;;;;;;8396784;28;20052;-82
2023/07/29 09:19:49;;;;;;;3.83;3.00;;;;;;;;;;8405732;28;20149;-82
2023/07/29 09:23:52;;;;;;;4.13;2.80;;;;;;;;;;8395340;28;20040;-82
2023/07/29 09:28:00;;;;;;;3.75;2.85;;;;;;;;;;8391920;28;20084;-83
2023/07/29 09:32:20;;;;;;;6.20;2.92;;;;;;;;;;8389998;28;20146;-85
2023/07/29 09:36:25;;;;;;;4.80;3.05;;;;;;;;;;8388909;28;20052;-82
2023/07/29 09:40:28;;;;;;;4.60;2.90;;;;;;;;;;8385047;28;20490;-82
2023/07/29 09:44:37;;;;;;;5.60;2.80;;;;;;;;;;8372064;28;20454;-86
2023/07/29 09:48:42;;;;;;;2.60;2.40;;;;;;;;;;8393215;28;20559;-90
2023/07/29 09:52:48;;;;;;;3.53;2.47;;;;;;;;;;8393223;28;20068;-83
2023/07/29 09:56:52;;;;;;;5.28;2.78;;;;;;;;;;8389872;28;20122;-87
2023/07/29 10:00:55;;;;;;;3.63;2.72;;;;;;;;;;8401701;28;20515;-87
2023/07/29 10:05:00;;;;;;;5.55;2.80;;;;;;;;;;8388089;28;20071;-87
2023/07/29 10:09:07;;;;;;;3.58;2.42;;;;;;;;;;8394439;28;20060;-91
2023/07/29 10:13:11;;;;;;;2.67;2.47;;;;;;;;;;8383993;28;20048;-86
2023/07/29 10:17:16;;;;;;;3.25;2.47;;;;;;;;;;8392833;28;20075;-84
2023/07/29 10:21:19;;;;;;;4.47;2.67;;;;;;;;;;8394832;28;20052;-91
2023/07/29 10:25:25;;;;;;;4.22;2.45;;;;;;;;;;8390137;28;20165;-84
2023/07/29 10:29:32;;;;;;;3.50;2.72;;;;;;;;;;8405653;28;20052;-91
2023/07/29 10:33:36;;;;;;;4.88;2.50;;;;;;;;;;8396129;28;20052;-88
2023/07/29 10:37:41;;;;;;;4.25;2.58;;;;;;;;;;8383673;28;20446;-84
2023/07/29 10:41:59;;;;;;;4.90;2.60;;;;;;;;;;8387090;28;20666;-88
2023/07/29 10:46:17;;;;;;;2.72;2.28;;;;;;;;;;8379080;28;20060;-83
2023/07/29 10:50:22;;;;;;;3.65;2.38;;;;;;;;;;8389997;28;20083;-85
2023/07/29 10:54:32;;;;;;;3.78;2.30;;;;;;;;;;8398049;28;20055;-92
2023/07/29 10:58:37;;;;;;;4.25;2.50;;;;;;;;;;8401184;28;20052;-90
2023/07/29 11:02:40;;;;;;;5.13;2.38;;;;;;;;;;8386180;28;20102;-85
2023/07/29 11:07:22;;;;;;;7.95;2.70;;;;;;;;;;8376632;28;20044;-85
2023/07/29 11:11:28;;;;;;;2.28;2.08;;;;;;;;;;8386746;28;20496;-85
2023/07/29 11:15:33;;;;;;;3.55;2.42;;;;;;;;;;8405706;28;20109;-82
2023/07/29 11:19:39;;;;;;;3.75;2.42;;;;;;;;;;8410229;28;20152;-83
2023/07/29 11:23:42;;;;;;;6.00;2.45;;;;;;;;;;8401649;28;20045;-83
2023/07/29 11:27:56;;;;;;;2.70;2.10;;;;;;;;;;8378352;28;20049;-83
2023/07/29 11:32:01;;;;;;;4.07;2.67;;;;;;;;;;8394739;28;20059;-94
2023/07/29 11:36:05;;;;;;;3.33;2.40;;;;;;;;;;8402878;28;20491;-83
2023/07/29 11:40:10;;;;;;;4.43;2.63;;;;;;;;;;8392825;28;20040;-85
2023/07/29 11:44:18;;;;;;;3.20;2.40;;;;;;;;;;8395145;28;20166;-96
2023/07/29 11:48:29;;;;;;;2.75;2.42;;;;;;;;;;8385524;28;20058;-92
2023/07/29 11:52:33;;;;;;;4.20;2.83;;;;;;;;;;8395625;28;20044;-83
2023/07/29 11:56:37;;;;;;;3.30;2.33;;;;;;;;;;8385371;28;20084;-85
2023/07/29 12:00:40;;;;;;;3.92;2.33;;;;;;;;;;8385942;28;20137;-87
2023/07/29 12:04:46;;;;;;;3.85;2.58;;;;;;;;;;8375315;28;20389;-83
2023/07/29 12:08:49;;;;;;;2.65;2.28;;;;;;;;;;8390776;28;20079;-89
2023/07/29 12:12:52;;;;;;;3.45;2.40;;;;;;;;;;8387236;28;20548;-84
2023/07/29 12:16:55;;;;;;;4.63;2.30;;;;;;;;;;8381770;28;20095;-93
2023/07/29 12:21:01;;;;;;;3.50;2.35;;;;;;;;;;8399354;28;20048;-83
2023/07/29 12:25:06;;;;;;;3.13;2.30;;;;;;;;;;8379623;28;20150;-87
2023/07/29 12:29:19;;;;;;;4.95;2.20;;;;;;;;;;8380594;28;20561;-89
2023/07/29 12:33:32;;;;;;;3.97;2.20;;;;;;;;;;8382249;28;20074;-86
2023/07/29 12:37:38;;;;;;;3.60;2.22;;;;;;;;;;8380512;28;20556;-83
2023/07/29 12:41:41;;;;;;;4.13;2.30;;;;;;;;;;8395497;28;20051;-84
2023/07/29 12:45:48;;;;;;;2.35;2.08;;;;;;;;;;8406303;28;20040;-84
2023/07/29 12:49:53;;;;;;;3.15;2.17;;;;;;;;;;8407775;28;20545;-85
2023/07/29 12:54:10;;;;;;;3.75;2.58;;;;;;;;;;8431158;28;20094;-84
2023/07/29 12:58:19;;;;;;;3.78;2.53;;;;;;;;;;8404127;28;20417;-84
2023/07/29 13:02:27;;;;;;;3.65;2.33;;;;;;;;;;8406659;28;20056;-84
2023/07/29 13:06:32;;;;;;;4.55;2.33;;;;;;;;;;8405699;28;20060;-84
2023/07/29 13:10:39;;;;;;;2.85;2.20;;;;;;;;;;8410088;28;20045;-83
2023/07/29 13:14:42;;;;;;;3.83;2.45;;;;;;;;;;8422199;28;20092;-83
2023/07/29 13:18:46;;;;;;;3.42;2.25;;;;;;;;;;8403629;28;20040;-83
2023/07/29 13:22:49;;;;;;;3.42;2.40;;;;;;;;;;8400671;28;20583;-84
2023/07/29 13:26:54;;;;;;;3.55;2.47;;;;;;;;;;8412501;28;20053;-84
2023/07/29 13:30:57;;;;;;;3.22;2.40;;;;;;;;;;8393030;28;20044;-88
2023/07/29 13:35:06;;;;;;;4.38;2.45;;;;;;;;;;8397722;28;20044;-90
2023/07/29 13:39:09;;;;;;;3.78;2.55;;;;;;;;;;8399853;28;20044;-84
2023/07/29 13:43:17;;;;;;;3.30;2.38;;;;;;;;;;8402854;28;20055;-84
2023/07/29 13:47:20;;;;;;;2.95;2.08;;;;;;;;;;8406554;28;20052;-89
2023/07/29 13:51:23;;;;;;;2.92;2.10;;;;;;;;;;8394991;28;20112;-91
2023/07/29 13:55:26;;;;;;;4.63;2.30;;;;;;;;;;8375021;28;20087;-85
2023/07/29 13:59:31;;;;;;;2.70;2.10;;;;;;;;;;8405343;28;20048;-83
2023/07/29 14:03:34;;;;;;;2.92;1.90;;;;;;;;;;8400194;28;20048;-84
2023/07/29 14:07:37;;;;;;;5.80;2.25;;;;;;;;;;8429626;28;20048;-83
2023/07/29 14:11:39;;;;;;;2.67;2.20;;;;;;;;;;8414916;28;20072;-83
2023/07/29 14:15:44;;;;;;;3.03;2.00;;;;;;;;;;8415381;28;20056;-83
2023/07/29 14:19:47;;;;;;;2.92;2.20;;;;;;;;;;8403499;28;20045;-83
2023/07/29 14:23:50;;;;;;;2.78;2.10;;;;;;;;;;8426609;28;20052;-83
2023/07/29 14:27:52;;;;;;;3.03;2.17;;;;;;;;;;8384276;28;20048;-83
2023/07/29 14:31:57;;;;;;;3.22;2.53;;;;;;;;;;8389624;28;20049;-83
2023/07/29 14:36:00;;;;;;;7.70;2.53;;;;;;;;;;8407272;28;20439;-83
2023/07/29 14:40:03;;;;;;;3.35;2.30;;;;;;;;;;8415961;28;20075;-83
2023/07/29 14:44:06;;;;;;;4.28;2.13;;;;;;;;;;8406333;28;20116;-89
2023/07/29 14:48:10;;;;;;;5.13;3.47;;;;;;;;;;8377051;28;20044;-88
2023/07/29 14:52:13;;;;;;;5.00;2.60;;;;;;;;;;8398698;28;20048;-94
2023/07/29 14:56:18;;;;;;;4.10;2.58;;;;;;;;;;8395008;28;20119;-85
2023/07/29 15:00:21;;;;;;;4.82;3.65;;;;;;;;;;8398034;28;20071;-84
2023/07/29 15:04:26;;;;;;;18.17;7.43;;;;;;;;;;8405417;28;20049;-88
2023/07/29 15:08:30;;;;;;;7.00;3.10;;;;;;;;;;8415938;28;20029;-82
2023/07/29 15:12:33;;;;;;;3.58;2.40;;;;;;;;;;8406763;28;20125;-90
2023/07/29 15:16:37;;;;;;;6.10;2.55;;;;;;;;;;8387349;28;20045;-84
2023/07/29 15:20:41;;;;;;;4.68;2.70;;;;;;;;;;8405387;28;20118;-87
2023/07/29 15:24:46;;;;;;;4.72;2.67;;;;;;;;;;8406088;28;20074;-85
2023/07/29 15:28:49;;;;;;;3.45;2.63;;;;;;;;;;8389864;28;20043;-86
2023/07/29 15:32:52;;;;;;;7.60;3.13;;;;;;;;;;8393117;28;20040;-86
2023/07/29 15:36:57;;;;;;;4.88;2.35;;;;;;;;;;8382962;28;20136;-91
2023/07/29 15:41:00;;;;;;;4.65;2.90;;;;;;;;;;8396286;28;20469;-92
2023/07/29 15:45:03;;;;;;;5.57;3.00;;;;;;;;;;8387961;28;20076;-90
2023/07/29 15:49:06;;;;;;;4.10;3.00;;;;;;;;;;8408540;28;20113;-91
2023/07/29 15:53:11;;;;;;;5.03;3.03;;;;;;;;;;8400935;28;20040;-86
2023/07/29 15:57:14;;;;;;;4.20;2.60;;;;;;;;;;8421520;28;20036;-90
2023/07/29 16:01:17;;;;;;;3.45;2.60;;;;;;;;;;8428292;28;20045;-91
2023/07/29 16:05:19;;;;;;;4.10;2.88;;;;;;;;;;8384405;28;20057;-90
2023/07/29 16:09:24;;;;;;;5.68;2.97;;;;;;;;;;8411883;28;20545;-91
2023/07/29 16:13:27;;;;;;;4.30;3.25;;;;;;;;;;8422059;28;20155;-86
2023/07/29 16:17:30;;;;;;;4.88;2.70;;;;;;;;;;8399431;28;20094;-89
2023/07/29 16:21:33;;;;;;;4.93;2.90;;;;;;;;;;8411326;28;20460;-90
2023/07/29 16:25:37;;;;;;;4.13;2.85;;;;;;;;;;8390066;28;20477;-85
2023/07/29 16:29:40;;;;;;;5.55;2.92;;;;;;;;;;8384298;28;20049;-88
2023/07/29 16:33:43;;;;;;;4.30;2.88;;;;;;;;;;8402332;28;20444;-86
2023/07/29 16:37:46;;;;;;;4.53;2.80;;;;;;;;;;8393736;28;20168;-83
2023/07/29 16:41:50;;;;;;;4.00;2.83;;;;;;;;;;8387364;28;20499;-88
2023/07/29 16:45:53;;;;;;;6.22;2.85;;;;;;;;;;8421440;28;20057;-92
2023/07/29 16:49:59;;;;;;;4.32;2.80;;;;;;;;;;8378103;28;20044;-88
2023/07/29 16:54:02;;;;;;;5.18;2.63;;;;;;;;;;8388573;28;20782;-83
2023/07/29 16:58:07;;;;;;;3.63;2.60;;;;;;;;;;8383067;28;20465;-82
2023/07/29 17:02:10;;;;;;;3.80;2.40;;;;;;;;;;8379975;28;20075;-91
2023/07/29 17:06:13;;;;;;;7.57;3.10;;;;;;;;;;8408522;28;20051;-83
2023/07/29 17:10:16;;;;;;;3.78;2.83;;;;;;;;;;8383427;28;20045;-90
2023/07/29 17:14:22;;;;;;;6.10;3.03;;;;;;;;;;8383749;28;20061;-85
2023/07/29 17:18:25;;;;;;;5.43;3.35;;;;;;;;;;8369936;28;20052;-83
2023/07/29 17:22:28;;;;;;;4.47;2.78;;;;;;;;;;8383051;28;20476;-85
2023/07/29 17:26:31;;;;;;;6.43;2.97;;;;;;;;;;8389119;28;20044;-85
2023/07/29 17:30:36;;;;;;;6.47;2.95;;;;;;;;;;8400063;28;20448;-84
2023/07/29 17:34:39;;;;;;;6.78;2.95;;;;;;;;;;8399433;28;20060;-92
2023/07/29 17:38:43;;;;;;;6.80;3.10;;;;;;;;;;8395032;28;20037;-89
2023/07/29 17:42:46;;;;;;;3.88;2.60;;;;;;;;;;8395688;28;20072;-87
2023/07/29 17:46:51;;;;;;;6.85;2.90;;;;;;;;;;8397380;28;20047;-83
2023/07/29 17:50:53;;;;;;;4.43;2.78;;;;;;;;;;8404571;28;20075;-84
2023/07/29 17:54:57;;;;;;;5.97;2.75;;;;;;;;;;8427411;28;20082;-82
2023/07/29 17:59:00;;;;;;;5.53;3.10;;;;;;;;;;8427549;28;20486;-84
2023/07/29 18:03:06;;;;;;;7.38;3.30;;;;;;;;;;8418111;28;20055;-86
2023/07/29 18:07:09;;;;;;;6.25;3.72;;;;;;;;;;8406803;28;20049;-87
2023/07/29 18:11:14;;;;;;;12.25;7.60;;;;;;;;;;8408322;28;20054;-83
2023/07/29 18:15:17;;;;;;;5.13;3.08;;;;;;;;;;8415571;28;20441;-83
2023/07/29 18:19:22;;;;;;;7.55;5.13;;;;;;;;;;8424515;28;20089;-84
2023/07/29 18:23:25;;;;;;;5.50;3.90;;;;;;;;;;8432271;28;20096;-91
2023/07/29 18:27:29;;;;;;;6.78;4.75;;;;;;;;;;8432548;28;20048;-84
2023/07/29 18:31:32;;;;;;;7.35;5.80;;;;;;;;;;8432990;28;20044;-91
2023/07/29 18:35:42;;;;;;;6.32;4.22;;;;;;;;;;8414026;28;20138;-82
2023/07/29 18:39:45;;;;;;;7.20;4.82;;;;;;;;;;8413358;28;20044;-91
2023/07/29 18:43:48;;;;;;;7.07;3.83;;;;;;;;;;8404218;28;20147;-91
2023/07/29 18:47:52;;;;;;;16.63;10.00;;;;;;;;;;8395702;28;20690;-85
2023/07/29 18:51:58;;;;;;;13.93;9.43;;;;;;;;;;8399891;28;20052;-90
2023/07/29 18:56:02;;;;;;;13.52;9.13;;;;;;;;;;8413652;28;20123;-91
2023/07/29 19:00:06;;;;;;;16.98;10.73;;;;;;;;;;8400069;28;20044;-82
2023/07/29 19:04:10;;;;;;;23.52;12.15;;;;;;;;;;8402175;28;20063;-85
2023/07/29 19:08:16;;;;;;;30.20;17.67;;;;;;;;;;8395790;28;20116;-96
2023/07/29 19:12:19;;;;;;;31.92;16.90;;;;;;;;;;8391643;28;20051;-94
2023/07/29 19:16:23;;;;;;;13.00;7.13;;;;;;;;;;8390526;28;20128;-83
2023/07/29 19:20:27;;;;;;;13.40;7.68;;;;;;;;;;8405674;28;20052;-88
2023/07/29 19:24:32;;;;;;;12.55;8.38;;;;;;;;;;8386828;28;20553;-86
2023/07/29 19:28:36;;;;;;;13.63;8.07;;;;;;;;;;8401274;28;20036;-87
2023/07/29 19:32:39;;;;;;;10.25;5.75;;;;;;;;;;8411346;28;20079;-93
2023/07/29 19:36:43;;;;;;;6.85;4.40;;;;;;;;;;8381808;28;20131;-82
2023/07/29 19:40:49;;;;;;;7.30;4.10;;;;;;;;;;8376544;28;20048;-91
2023/07/29 19:44:53;;;;;;;5.07;3.17;;;;;;;;;;8425280;28;20162;-83
2023/07/29 19:48:57;;;;;;;7.90;4.15;;;;;;;;;;8376316;28;20048;-95
2023/07/29 19:53:00;;;;;;;6.78;4.38;;;;;;;;;;8386546;28;20139;-90
2023/07/29 19:57:06;;;;;;;6.05;3.55;;;;;;;;;;8401956;28;20043;-89
2023/07/29 20:01:11;;;;;;;7.30;4.30;;;;;;;;;;8400168;28;20059;-86
2023/07/29 20:05:15;;;;;;;8.60;5.80;;;;;;;;;;8382556;28;20056;-92
2023/07/29 20:09:22;;;;;;;11.75;7.38;;;;;;;;;;8391083;28;20044;-96
2023/07/29 20:13:28;;;;;;;8.73;4.47;;;;;;;;;;8402408;28;20052;-96
2023/07/29 20:17:32;;;;;;;9.73;4.80;;;;;;;;;;8429425;28;20056;-96
2023/07/29 20:21:35;;;;;;;9.38;4.72;;;;;;;;;;8403545;28;20130;-96
2023/07/29 20:25:39;;;;;;;9.40;5.05;;;;;;;;;;8386406;28;20048;-87
2023/07/29 20:29:45;;;;;;;8.57;4.13;;;;;;;;;;8406504;28;20055;-83
2023/07/29 20:33:49;;;;;;;7.68;4.32;;;;;;;;;;8403214;28;20055;-87
2023/07/29 20:37:53;;;;;;;6.40;3.88;;;;;;;;;;8401441;28;20548;-87
2023/07/29 20:41:57;;;;;;;7.80;3.75;;;;;;;;;;8398780;28;20052;-84
2023/07/29 20:46:02;;;;;;;7.53;4.55;;;;;;;;;;8385666;28;20447;-92
2023/07/29 20:50:08;;;;;;;6.25;3.50;;;;;;;;;;8384639;28;20135;-93
2023/07/29 20:54:12;;;;;;;7.60;4.38;;;;;;;;;;8397522;28;20064;-93
2023/07/29 20:58:16;;;;;;;6.28;3.88;;;;;;;;;;8394665;28;20096;-88
2023/07/29 21:02:20;;;;;;;8.45;4.68;;;;;;;;;;8379136;28;20044;-95
2023/07/29 21:06:23;;;;;;;7.30;4.15;;;;;;;;;;8398534;28;20127;-82
2023/07/29 21:10:26;;;;;;;5.53;3.67;;;;;;;;;;8377163;28;20041;-82
2023/07/29 21:14:29;;;;;;;8.43;4.20;;;;;;;;;;8404706;28;20047;-82
2023/07/29 21:18:33;;;;;;;6.43;3.88;;;;;;;;;;8405086;28;20051;-84
2023/07/29 21:22:36;;;;;;;7.75;3.70;;;;;;;;;;8411608;28;20537;-94
2023/07/29 21:26:39;;;;;;;9.00;4.03;;;;;;;;;;8397000;28;20471;-85
2023/07/29 21:30:42;;;;;;;7.75;4.55;;;;;;;;;;8401099;28;20071;-84
2023/07/29 21:34:47;;;;;;;7.00;5.13;;;;;;;;;;8393823;28;20044;-92
2023/07/29 21:38:50;;;;;;;9.50;4.18;;;;;;;;;;8409355;28;20401;-89
2023/07/29 21:42:53;;;;;;;8.80;4.43;;;;;;;;;;8397736;28;20481;-82
2023/07/29 21:46:56;;;;;;;7.63;4.18;;;;;;;;;;8407155;28;20044;-83
2023/07/29 21:51:00;;;;;;;5.95;3.83;;;;;;;;;;8395866;28;20052;-87
2023/07/29 21:55:04;;;;;;;5.05;3.45;;;;;;;;;;8405651;28;20076;-87
2023/07/29 21:59:06;;;;;;;6.45;3.65;;;;;;;;;;8408702;28;20063;-87
2023/07/29 22:03:09;;;;;;;5.80;3.90;;;;;;;;;;8415361;28;20479;-94
2023/07/29 22:07:15;;;;;;;6.07;3.78;;;;;;;;;;8405572;28;20062;-83
2023/07/29 22:11:18;;;;;;;7.25;3.85;;;;;;;;;;8435005;28;20055;-86
2023/07/29 22:15:21;;;;;;;5.75;3.72;;;;;;;;;;8403762;28;20080;-91
2023/07/29 22:19:24;;;;;;;7.25;4.10;;;;;;;;;;8397321;28;20052;-93
2023/07/29 22:23:28;;;;;;;5.30;3.90;;;;;;;;;;8385042;28;20396;-89
2023/07/29 22:27:31;;;;;;;6.95;4.20;;;;;;;;;;8404522;28;20048;-82
2023/07/29 22:31:34;;;;;;;8.18;4.15;;;;;;;;;;8404648;28;20112;-88
2023/07/29 22:35:37;;;;;;;6.18;4.30;;;;;;;;;;8400709;28;20047;-90
2023/07/29 22:39:43;;;;;;;8.80;5.13;;;;;;;;;;8411337;28;20093;-93
2023/07/29 22:43:45;;;;;;;6.53;4.50;;;;;;;;;;8434460;28;20044;-89
2023/07/29 22:47:49;;;;;;;7.40;4.75;;;;;;;;;;8417672;28;20480;-96
2023/07/29 22:51:53;;;;;;;6.85;4.97;;;;;;;;;;8398133;28;20037;-84
2023/07/29 22:55:57;;;;;;;7.75;4.93;;;;;;;;;;8398897;28;20444;-95
2023/07/29 23:00:00;;;;;;;7.18;4.70;;;;;;;;;;8399926;28;20076;-89
2023/07/29 23:04:03;;;;;;;7.05;4.93;;;;;;;;;;8415271;28;20519;-90
2023/07/29 23:08:06;;;;;;;8.98;5.50;;;;;;;;;;8415828;28;20040;-84
2023/07/29 23:12:10;;;;;;;7.47;4.95;;;;;;;;;;8394942;28;20053;-83
2023/07/29 23:16:13;;;;;;;6.47;4.60;;;;;;;;;;8390202;28;20128;-90
2023/07/29 23:20:16;;;;;;;6.10;4.55;;;;;;;;;;8371071;28;20423;-94
2023/07/29 23:24:19;;;;;;;8.95;5.00;;;;;;;;;;8385041;28;20587;-86
2023/07/29 23:28:23;;;;;;;6.50;4.85;;;;;;;;;;8381212;28;20086;-88
2023/07/29 23:32:26;;;;;;;6.75;5.30;;;;;;;;;;8396928;28;20127;-90
2023/07/29 23:36:29;;;;;;;7.50;5.65;;;;;;;;;;8388275;28;20063;-81
2023/07/29 23:40:32;;;;;;;7.55;5.20;;;;;;;;;;8399281;28;20149;-89
2023/07/29 23:44:36;;;;;;;6.43;4.28;;;;;;;;;;8403605;28;20464;-82
2023/07/29 23:48:39;;;;;;;6.38;4.20;;;;;;;;;;8398557;28;20090;-84
2023/07/29 23:52:42;;;;;;;6.70;4.55;;;;;;;;;;8372419;28;20059;-91
2023/07/29 23:56:45;;;;;;;6.93;4.13;;;;;;;;;;8380309;28;20484;-94
